createdAt,value
2023-02-21T16:22:43.189Z,97812.38
2023-02-21T16:30:31.803Z,97809.59
2023-02-21T16:31:33.199Z,97809.59
2023-02-21T16:32:36.405Z,97808.81
2023-02-21T16:33:38.680Z,97772.72
2023-02-21T16:34:39.970Z,97793.38
2023-02-21T16:35:42.230Z,97793.63
2023-02-21T16:36:43.501Z,97803.19
2023-02-21T16:37:45.745Z,97804.91
2023-02-21T16:38:47.057Z,97811.25
2023-02-21T16:43:22.150Z,97814.97
2023-02-21T16:44:23.481Z,97812.84
2023-02-21T16:45:25.896Z,97811.00
2023-02-21T16:46:30.132Z,97808.88
2023-02-21T16:47:31.789Z,97814.53
2023-02-21T16:48:34.146Z,97813.31
2023-02-21T16:49:35.634Z,97809.69
2023-02-21T16:51:46.231Z,97805.06
2023-02-21T16:52:48.870Z,97809.06
2023-02-21T16:54:59.872Z,97800.63
2023-02-21T16:56:15.526Z,97799.47
2023-02-21T16:57:17.216Z,97799.03
2023-02-21T16:58:23.783Z,97799.38
2023-02-21T16:59:26.639Z,97798.50
2023-02-21T17:00:28.331Z,97800.78
2023-02-21T17:01:32.504Z,97801.09
2023-02-21T17:02:34.304Z,97799.84
2023-02-21T17:03:37.061Z,97792.13
2023-02-21T17:04:38.811Z,97800.09
2023-02-21T17:05:41.414Z,97795.31
2023-02-21T17:06:52.089Z,97797.00
2023-02-21T17:07:54.893Z,97792.81
2023-02-21T17:08:56.778Z,97791.31
2023-02-21T17:09:59.379Z,97796.56
2023-02-21T17:11:01.992Z,97793.97
2023-02-21T17:12:06.376Z,97788.38
2023-02-21T17:13:09.051Z,97789.16
2023-02-21T17:14:10.691Z,97791.34
2023-02-21T17:15:13.747Z,97788.94
2023-02-21T17:16:15.504Z,97787.59
2023-02-21T17:17:18.536Z,97787.84
2023-02-21T17:18:24.226Z,97788.38
2023-02-21T17:19:25.973Z,97786.69
2023-02-21T17:20:29.124Z,97783.16
2023-02-21T17:21:31.326Z,97783.72
2023-02-21T17:22:34.229Z,97785.63
2023-02-21T17:23:36.863Z,97787.44
2023-02-21T17:24:39.816Z,97779.47
2023-02-21T17:26:35.146Z,97782.97
2023-02-21T17:27:37.121Z,97783.75
2023-02-21T17:28:40.292Z,97781.56
2023-02-21T17:29:41.934Z,97782.72
2023-02-21T17:30:44.971Z,97784.88
2023-02-21T17:31:46.861Z,97785.09
2023-02-21T17:32:49.767Z,97775.88
2023-02-21T17:33:52.682Z,97786.34
2023-02-21T17:34:55.759Z,97784.75
2023-02-21T17:35:57.443Z,97781.75
2023-02-21T17:37:00.216Z,97781.31
2023-02-21T17:38:02.832Z,97786.50
2023-02-21T17:39:04.638Z,97785.00
2023-02-21T17:40:07.627Z,97783.81
2023-02-21T17:41:09.349Z,97781.78
2023-02-21T17:42:13.381Z,97783.88
2023-02-21T17:43:15.581Z,97785.69
2023-02-21T17:44:19.086Z,97778.28
2023-02-21T17:45:21.166Z,97780.78
2023-02-21T17:46:23.960Z,97779.66
2023-02-21T17:47:25.752Z,97779.31
2023-02-21T17:48:28.402Z,97779.78
2023-02-21T17:49:31.110Z,97783.19
2023-02-21T17:50:32.741Z,97778.72
2023-02-21T17:51:35.537Z,97778.78
2023-02-21T17:52:37.256Z,97783.72
2023-02-21T17:53:40.094Z,97789.75
2023-02-21T17:54:41.818Z,97783.78
2023-02-21T17:55:44.588Z,97783.09
2023-02-21T17:56:47.571Z,97777.66
2023-02-21T17:57:50.582Z,97779.66
2023-02-21T17:58:55.066Z,97783.97
2023-02-21T17:59:56.767Z,97778.06
2023-02-21T18:00:59.650Z,97781.66
2023-02-21T18:02:02.299Z,97781.66
2023-02-21T18:03:06.605Z,97782.22
2023-02-21T18:04:09.686Z,97779.25
2023-02-21T18:05:12.677Z,97775.06
2023-02-21T18:06:14.387Z,97784.97
2023-02-21T18:07:17.128Z,97779.88
2023-02-21T18:08:18.892Z,97779.91
2023-02-21T18:09:21.660Z,97776.59
2023-02-21T18:10:25.188Z,97784.34
2023-02-21T18:11:26.839Z,97775.72
2023-02-21T18:12:29.871Z,97779.41
2023-02-21T18:13:32.926Z,97779.13
2023-02-21T18:14:35.616Z,97782.66
2023-02-21T18:15:37.703Z,97780.81
2023-02-21T18:16:40.338Z,97776.44
2023-02-21T18:17:41.971Z,97783.63
2023-02-21T18:18:45.170Z,97778.97
2023-02-21T18:19:46.958Z,97780.50
2023-02-21T18:20:49.587Z,97781.69
2023-02-21T18:21:52.224Z,97784.09
2023-02-21T18:22:54.417Z,97778.00
2023-02-21T18:23:57.014Z,97775.59
2023-02-21T18:24:58.816Z,97777.75
2023-02-21T18:26:01.428Z,97768.94
2023-02-21T18:27:03.158Z,97777.91
2023-02-21T18:28:06.012Z,97774.56
2023-02-21T18:29:10.170Z,97775.84
2023-02-21T18:30:12.321Z,97775.06
2023-02-21T18:31:16.982Z,97779.22
2023-02-21T18:32:18.945Z,97776.34
2023-02-21T18:33:22.066Z,97777.63
2023-02-21T18:34:23.745Z,97775.22
2023-02-21T18:35:26.351Z,97780.69
2023-02-21T18:36:29.034Z,97772.69
2023-02-21T18:37:31.714Z,97778.75
2023-02-21T18:38:33.370Z,97769.03
2023-02-21T18:39:36.039Z,97772.53
2023-02-21T18:40:44.531Z,97768.84
2023-02-21T18:41:47.281Z,97781.63
2023-02-21T18:42:48.930Z,97776.72
2023-02-21T18:43:51.647Z,97768.59
2023-02-21T18:44:55.671Z,97772.13
2023-02-21T18:45:57.914Z,97771.28
2023-02-21T18:47:01.617Z,97777.06
2023-02-21T18:48:03.442Z,97772.28
2023-02-21T18:49:06.068Z,97772.91
2023-02-21T18:50:08.062Z,97772.41
2023-02-21T18:51:11.267Z,97768.44
2023-02-21T18:52:14.043Z,97763.81
2023-02-21T18:53:17.007Z,97762.88
2023-02-21T18:54:18.916Z,97763.66
2023-02-21T18:55:21.530Z,97762.53
2023-02-21T18:56:24.465Z,97760.00
2023-02-21T18:57:26.105Z,97764.75
2023-02-21T18:58:28.719Z,97766.03
2023-02-21T18:59:30.392Z,97762.22
2023-02-21T19:00:36.241Z,97765.25
2023-02-21T19:01:39.021Z,97763.16
2023-02-21T19:02:41.718Z,97759.50
2023-02-21T19:03:44.543Z,97761.38
2023-02-21T19:04:47.218Z,97758.22
2023-02-21T19:05:52.418Z,97760.94
2023-02-21T19:06:55.197Z,97752.47
2023-02-21T19:07:58.388Z,97752.03
2023-02-21T19:09:02.310Z,97758.56
2023-02-21T19:10:04.712Z,97746.72
2023-02-21T19:11:07.333Z,97746.25
2023-02-21T19:12:10.041Z,97742.56
2023-02-21T19:13:12.758Z,97747.06
2023-02-21T19:14:14.397Z,97745.31
2023-02-21T19:15:17.285Z,97746.25
2023-02-21T19:16:22.623Z,97739.91
2023-02-21T19:17:24.405Z,97745.16
2023-02-21T19:18:28.169Z,97741.00
2023-02-21T19:19:32.137Z,97736.03
2023-02-21T19:20:33.933Z,97740.00
2023-02-21T19:21:36.564Z,97742.25
2023-02-21T19:22:38.322Z,97742.06
2023-02-21T19:23:41.029Z,97739.50
2023-02-21T19:24:42.681Z,97740.78
2023-02-21T19:25:45.335Z,97736.81
2023-02-21T19:26:47.067Z,97730.75
2023-02-21T19:27:49.707Z,97734.25
2023-02-21T19:28:52.314Z,97729.47
2023-02-21T19:29:54.036Z,97734.25
2023-02-21T19:30:56.673Z,97729.00
2023-02-21T19:32:00.996Z,97731.38
2023-02-21T19:33:03.114Z,97725.00
2023-02-21T19:34:05.957Z,97732.81
2023-02-21T19:35:08.408Z,97725.00
2023-02-21T19:36:11.560Z,97730.91
2023-02-21T19:37:13.194Z,97731.69
2023-02-21T19:38:15.826Z,97729.13
2023-02-21T19:39:17.549Z,97728.81
2023-02-21T19:40:20.205Z,97721.63
2023-02-21T19:41:22.824Z,97721.50
2023-02-21T19:42:24.458Z,97724.50
2023-02-21T19:43:27.084Z,97723.22
2023-02-21T19:44:29.266Z,97721.16
2023-02-21T19:45:31.890Z,97721.50
2023-02-21T19:46:33.759Z,97723.84
2023-02-21T19:47:37.697Z,97720.81
2023-02-21T19:48:39.341Z,97718.91
2023-02-21T19:49:45.817Z,97718.06
2023-02-21T19:50:47.473Z,97727.47
2023-02-21T19:51:51.247Z,97725.22
2023-02-21T19:52:52.983Z,97710.25
2023-02-21T19:53:56.163Z,97713.91
2023-02-21T19:54:57.827Z,97710.94
2023-02-21T19:56:00.558Z,97709.94
2023-02-21T19:57:03.193Z,97705.19
2023-02-21T19:58:07.332Z,97702.78
2023-02-21T19:59:08.992Z,97703.91
2023-02-21T20:00:12.812Z,97713.91
2023-02-21T20:01:15.825Z,97707.22
2023-02-21T20:02:17.743Z,97706.13
2023-02-21T20:03:21.743Z,97710.75
2023-02-21T20:04:24.375Z,97711.50
2023-02-21T20:05:27.154Z,97705.63
2023-02-21T20:06:29.863Z,97703.09
2023-02-21T20:07:31.493Z,97699.56
2023-02-21T20:08:34.126Z,97699.72
2023-02-21T20:09:36.759Z,97699.41
2023-02-21T20:10:39.579Z,97701.28
2023-02-21T20:11:41.422Z,97703.69
2023-02-21T20:12:44.166Z,97706.22
2023-02-21T20:13:45.912Z,97700.66
2023-02-21T20:14:48.724Z,97697.00
2023-02-21T20:15:50.861Z,97697.50
2023-02-21T20:16:54.361Z,97701.00
2023-02-21T20:17:56.062Z,97699.88
2023-02-21T20:19:00.052Z,97700.69
2023-02-21T20:20:01.908Z,97702.75
2023-02-21T20:21:04.856Z,97711.16
2023-02-21T20:22:06.622Z,97705.88
2023-02-21T20:23:10.481Z,97706.50
2023-02-21T20:24:12.202Z,97700.94
2023-02-21T20:25:14.952Z,97697.13
2023-02-21T20:26:17.628Z,97696.94
2023-02-21T20:27:19.369Z,97700.13
2023-02-21T20:28:22.120Z,97698.06
2023-02-21T20:29:25.783Z,97698.06
2023-02-21T20:30:28.569Z,97692.91
2023-02-21T20:31:32.553Z,97696.53
2023-02-21T20:32:35.585Z,97704.28
2023-02-21T20:33:38.204Z,97697.13
2023-02-21T20:34:42.272Z,97694.78
2023-02-21T20:35:44.138Z,97695.53
2023-02-21T20:36:47.822Z,97694.09
2023-02-21T20:37:50.799Z,97695.53
2023-02-21T20:38:53.428Z,97692.81
2023-02-21T20:39:55.252Z,97687.72
2023-02-21T20:40:57.909Z,97682.81
2023-02-21T20:42:00.842Z,97688.72
2023-02-21T20:43:03.595Z,97694.13
2023-02-21T20:44:05.347Z,97687.75
2023-02-21T20:45:10.419Z,97690.31
2023-02-21T20:46:13.202Z,97680.03
2023-02-21T20:47:14.859Z,97681.78
2023-02-21T20:48:17.770Z,97682.88
2023-02-21T20:49:21.370Z,97679.00
2023-02-21T20:50:25.584Z,97678.97
2023-02-21T20:51:28.901Z,97678.97
2023-02-21T20:52:31.573Z,97679.94
2023-02-21T20:53:33.301Z,97675.16
2023-02-21T20:54:35.893Z,97680.16
2023-02-21T20:55:37.523Z,97675.84
2023-02-21T20:56:40.963Z,97670.19
2023-02-21T20:57:42.660Z,97662.13
2023-02-21T20:58:45.533Z,97666.91
2023-02-21T20:59:48.153Z,97667.03
2023-02-21T21:00:49.925Z,97663.50
2023-02-21T21:01:52.548Z,97664.63
2023-02-21T21:02:54.199Z,97667.03
2023-02-21T21:03:57.161Z,97671.59
2023-02-21T21:04:58.894Z,97667.00
2023-02-21T21:06:03.048Z,97664.94
2023-02-21T21:07:06.467Z,97668.56
2023-02-21T21:08:09.171Z,97667.91
2023-02-21T21:09:17.742Z,97673.47
2023-02-21T21:10:20.488Z,97667.53
2023-02-21T21:11:22.232Z,97675.75
2023-02-21T21:12:24.910Z,97671.34
2023-02-21T21:13:26.586Z,97667.38
2023-02-21T21:14:30.061Z,97664.75
2023-02-21T21:15:32.683Z,97666.03
2023-02-21T21:16:35.061Z,97665.13
2023-02-21T21:17:39.046Z,97656.25
2023-02-21T21:18:41.507Z,97663.31
2023-02-21T21:19:44.882Z,97662.84
2023-02-21T21:20:46.541Z,97655.84
2023-02-21T21:21:51.495Z,97653.78
2023-02-21T21:22:53.120Z,97655.66
2023-02-21T21:23:56.440Z,97653.22
2023-02-21T21:24:58.190Z,97658.31
2023-02-21T21:26:01.946Z,97653.28
2023-02-21T21:27:08.377Z,97658.31
2023-02-21T21:28:13.131Z,97658.63
2023-02-21T21:29:15.489Z,97661.16
2023-02-21T21:30:22.687Z,97657.78
2023-02-21T21:31:25.555Z,97653.16
2023-02-21T21:32:27.355Z,97655.69
2023-02-21T21:33:30.111Z,97656.38
2023-02-21T21:34:32.254Z,97653.16
2023-02-21T21:35:34.953Z,97656.56
2023-02-21T21:36:36.606Z,97658.81
2023-02-21T21:37:40.602Z,97654.94
2023-02-21T21:38:42.639Z,97657.16
2023-02-21T21:39:45.595Z,97649.19
2023-02-21T21:40:48.036Z,97649.31
2023-02-21T21:41:52.773Z,97660.81
2023-02-21T21:42:59.777Z,97654.91
2023-02-21T21:44:02.134Z,97653.22
2023-02-21T21:45:08.038Z,97642.94
2023-02-21T21:46:10.032Z,97646.28
2023-02-21T21:47:15.529Z,97642.97
2023-02-21T21:48:19.673Z,97648.00
2023-02-21T21:49:22.653Z,97639.97
2023-02-21T21:50:25.360Z,97642.03
2023-02-21T21:51:28.531Z,97641.69
2023-02-21T21:52:31.174Z,97633.50
2023-02-21T21:53:35.142Z,97635.44
2023-02-21T21:54:37.628Z,97633.34
2023-02-21T21:55:40.348Z,97632.19
2023-02-21T21:56:42.292Z,97630.47
2023-02-21T21:57:45.034Z,97624.56
2023-02-21T21:58:46.797Z,97635.88
2023-02-21T21:59:49.833Z,97629.75
2023-02-21T22:00:51.591Z,97634.59
2023-02-21T22:01:57.752Z,97623.25
2023-02-21T22:03:01.823Z,97630.56
2023-02-21T22:04:04.911Z,97626.59
2023-02-21T22:05:06.895Z,97621.72
2023-02-21T22:06:10.960Z,97624.56
2023-02-21T22:07:12.873Z,97622.44
2023-02-21T22:08:17.860Z,97626.00
2023-02-21T22:09:21.006Z,97624.69
2023-02-21T22:10:24.800Z,97618.63
2023-02-21T22:11:26.478Z,97616.59
2023-02-21T22:12:29.683Z,97615.19
2023-02-21T22:13:33.781Z,97620.78
2023-02-21T22:14:36.432Z,97620.09
2023-02-21T22:15:38.190Z,97618.53
2023-02-21T22:16:42.420Z,97621.06
2023-02-21T22:17:44.354Z,97618.72
2023-02-21T22:18:47.545Z,97617.25
2023-02-21T22:19:50.479Z,97620.88
2023-02-21T22:20:55.632Z,97621.41
2023-02-21T22:21:59.209Z,97621.56
2023-02-21T22:23:01.987Z,97618.31
2023-02-21T22:24:04.849Z,97618.75
2023-02-21T22:25:11.543Z,97620.75
2023-02-21T22:26:18.343Z,97618.63
2023-02-21T22:27:20.954Z,97619.22
2023-02-21T22:28:23.575Z,97616.47
2023-02-21T22:29:25.211Z,97620.75
2023-02-21T22:30:27.867Z,97619.06
2023-02-21T22:31:29.522Z,97608.34
2023-02-21T22:32:32.229Z,97617.81
2023-02-21T22:33:34.360Z,97615.72
2023-02-21T22:34:36.949Z,97609.75
2023-02-21T22:35:38.642Z,97614.97
2023-02-21T22:36:41.247Z,97613.94
2023-02-21T22:37:44.445Z,97610.97
2023-02-21T22:38:49.300Z,97606.94
2023-02-21T22:39:50.918Z,97608.34
2023-02-21T22:40:59.833Z,97602.41
2023-02-21T22:42:05.163Z,97597.19
2023-02-21T22:43:08.819Z,97602.91
2023-02-21T22:44:10.726Z,97603.50
2023-02-21T22:45:13.478Z,97594.91
2023-02-21T22:46:15.285Z,97597.13
2023-02-21T22:47:18.978Z,97603.44
2023-02-21T22:48:21.141Z,97608.03
2023-02-21T22:49:24.120Z,97598.41
2023-02-21T22:50:25.841Z,97601.72
2023-02-21T22:51:28.778Z,97601.31
2023-02-21T22:52:30.433Z,97595.09
2023-02-21T22:53:33.062Z,97595.97
2023-02-21T22:54:35.060Z,97591.06
2023-02-21T22:55:38.152Z,97590.66
2023-02-21T22:56:50.614Z,97588.59
2023-02-21T22:57:54.103Z,97588.59
2023-02-21T22:58:56.804Z,97585.91
2023-02-21T22:59:59.467Z,97593.94
2023-02-21T23:01:01.094Z,97599.72
2023-02-21T23:02:04.114Z,97587.44
2023-02-21T23:03:12.651Z,97583.31
2023-02-21T23:04:25.004Z,97583.38
2023-02-21T23:05:26.804Z,97580.56
2023-02-21T23:06:29.421Z,97585.97
2023-02-21T23:07:31.274Z,97578.50
2023-02-21T23:08:35.190Z,97579.97
2023-02-21T23:09:37.098Z,97583.41
2023-02-21T23:10:40.529Z,97588.47
2023-02-21T23:11:48.833Z,97584.56
2023-02-21T23:12:52.410Z,97585.63
2023-02-21T23:13:54.177Z,97580.22
2023-02-21T23:14:56.785Z,97586.81
2023-02-21T23:15:58.910Z,97587.81
2023-02-21T23:17:01.856Z,97588.91
2023-02-21T23:18:03.824Z,97581.69
2023-02-21T23:19:07.015Z,97577.47
2023-02-21T23:20:15.687Z,97575.06
2023-02-21T23:21:22.867Z,97572.56
2023-02-21T23:22:25.084Z,97581.97
2023-02-21T23:23:29.041Z,97580.53
2023-02-21T23:24:30.668Z,97576.38
2023-02-21T23:25:35.969Z,97574.59
2023-02-21T23:26:43.997Z,97577.72
2023-02-21T23:27:48.719Z,97573.19
2023-02-21T23:28:50.391Z,97583.34
2023-02-21T23:29:54.081Z,97578.88
2023-02-21T23:30:57.962Z,97580.53
2023-02-21T23:32:09.363Z,97578.31
2023-02-21T23:33:14.982Z,97577.19
2023-02-21T23:34:16.626Z,97573.16
2023-02-21T23:35:19.237Z,97569.22
2023-02-21T23:36:22.573Z,97573.81
2023-02-21T23:37:25.416Z,97577.53
2023-02-21T23:38:29.011Z,97570.19
2023-02-21T23:39:31.624Z,97575.97
2023-02-21T23:40:39.140Z,97569.31
2023-02-21T23:41:42.402Z,97572.75
2023-02-21T23:42:45.335Z,97574.47
2023-02-21T23:43:51.304Z,97578.97
2023-02-21T23:44:52.931Z,97570.66
2023-02-21T23:45:56.059Z,97571.84
2023-02-21T23:46:59.262Z,97569.75
2023-02-21T23:48:01.914Z,97568.44
2023-02-21T23:49:03.593Z,97567.56
2023-02-21T23:50:07.743Z,97562.47
2023-02-21T23:51:10.416Z,97562.03
2023-02-21T23:52:12.080Z,97563.56
2023-02-21T23:53:15.586Z,97561.19
2023-02-21T23:54:17.960Z,97564.19
2023-02-21T23:55:24.929Z,97559.09
2023-02-21T23:56:27.486Z,97566.97
2023-02-21T23:57:31.320Z,97564.56
2023-02-21T23:58:32.977Z,97563.28
2023-02-21T23:59:37.060Z,97555.97
